Time;durP1;ratioP1;P1;durP2;ratioP2;P2;SDS_P1;SDS_P2;PMS_P1;PMS_P2;Temp;Humidity;BMP_temperature;BMP_pressure;BME280_temperature;BME280_humidity;BME280_pressure;Samples;Min_cycle;Max_cycle;Signal;HPM_P1;HPM_P2
2023/03/12 00:00:20;;;;;;;1999.90;999.90;;;-2.40;99.90;;;;;;5077600;28;20111;-75
2023/03/12 00:02:45;;;;;;;1999.90;999.90;;;-2.40;99.90;;;;;;5077319;28;20082;-76
2023/03/12 00:05:11;;;;;;;1999.90;999.90;;;-2.30;99.90;;;;;;5077209;28;20112;-75
2023/03/12 00:07:37;;;;;;;1999.90;999.90;;;-2.30;99.90;;;;;;5077530;28;20102;-75
2023/03/12 00:10:06;;;;;;;1999.90;999.90;;;-2.30;99.90;;;;;;5077451;28;20558;-75
2023/03/12 00:12:32;;;;;;;1999.90;999.90;;;-2.20;99.90;;;;;;5077374;28;20071;-75
2023/03/12 00:14:57;;;;;;;1999.90;999.90;;;-2.20;99.90;;;;;;5076950;28;20056;-75
2023/03/12 00:17:23;;;;;;;1999.90;999.90;;;-2.30;99.90;;;;;;5077459;28;20041;-75
2023/03/12 00:19:52;;;;;;;1999.90;999.90;;;-2.30;99.90;;;;;;5077296;28;20498;-75
2023/03/12 00:22:21;;;;;;;1999.90;999.90;;;-2.30;99.90;;;;;;5077172;28;20470;-76
2023/03/12 00:24:50;;;;;;;1999.90;999.90;;;-2.40;99.90;;;;;;5075215;28;20029;-75
2023/03/12 00:27:15;;;;;;;1999.90;999.90;;;-2.40;99.90;;;;;;5077084;28;20025;-75
2023/03/12 00:29:41;;;;;;;1999.90;999.90;;;-2.50;99.90;;;;;;5077193;28;20037;-76
2023/03/12 00:32:07;;;;;;;1999.90;999.90;;;-2.40;99.90;;;;;;5076818;28;20072;-75
2023/03/12 00:34:32;;;;;;;1999.90;999.90;;;-2.30;99.90;;;;;;5075900;28;20082;-75
2023/03/12 00:36:58;;;;;;;1999.90;999.90;;;-2.40;99.90;;;;;;5077177;28;20717;-75
2023/03/12 00:39:23;;;;;;;1999.90;999.90;;;-2.30;99.90;;;;;;5076626;28;20035;-75
2023/03/12 00:41:49;;;;;;;1999.90;999.90;;;-2.40;99.90;;;;;;5077030;28;20037;-75
2023/03/12 00:44:14;;;;;;;1999.90;999.90;;;-2.40;99.90;;;;;;5076404;28;20112;-76
2023/03/12 00:46:40;;;;;;;1999.90;999.90;;;-2.50;99.90;;;;;;5075281;28;20040;-76
2023/03/12 00:49:05;;;;;;;1999.90;999.90;;;-2.60;99.90;;;;;;5075670;28;20188;-75
2023/03/12 00:51:31;;;;;;;1999.90;999.90;;;-2.50;99.90;;;;;;5076663;28;20041;-75
2023/03/12 00:53:56;;;;;;;1999.90;999.90;;;-2.40;99.90;;;;;;5076318;28;20040;-75
2023/03/12 00:56:22;;;;;;;1999.90;999.90;;;-2.40;99.90;;;;;;5075611;28;20063;-76
2023/03/12 00:58:47;;;;;;;1999.90;999.90;;;-2.30;99.90;;;;;;5076808;28;20033;-76
2023/03/12 01:01:13;;;;;;;1999.90;999.90;;;-2.40;99.90;;;;;;5076449;28;20040;-75
2023/03/12 01:03:38;;;;;;;1999.90;999.90;;;-2.40;99.90;;;;;;5076191;28;20475;-76
2023/03/12 01:06:05;;;;;;;1999.90;999.90;;;-2.30;99.90;;;;;;5076359;28;20033;-75
2023/03/12 01:08:31;;;;;;;1999.90;999.90;;;-2.30;99.90;;;;;;5076479;28;20123;-76
2023/03/12 01:10:56;;;;;;;1999.90;999.90;;;-2.30;99.90;;;;;;5076455;28;20243;-76
2023/03/12 01:13:22;;;;;;;1999.90;999.90;;;-2.30;99.90;;;;;;5076492;28;20395;-76
2023/03/12 01:15:47;;;;;;;1999.90;999.90;;;-2.30;99.90;;;;;;5074733;28;20036;-76
2023/03/12 01:18:13;;;;;;;1999.90;999.90;;;-2.40;99.90;;;;;;5076349;28;20037;-75
2023/03/12 01:20:39;;;;;;;1999.90;999.90;;;-2.40;99.90;;;;;;5076350;28;20107;-76
2023/03/12 01:23:05;;;;;;;1999.90;999.90;;;-2.50;99.90;;;;;;5076449;28;20079;-75
2023/03/12 01:25:32;;;;;;;1999.90;999.90;;;-2.50;99.90;;;;;;5075862;28;20033;-76
2023/03/12 01:27:58;;;;;;;1999.90;999.90;;;-2.50;99.90;;;;;;5075986;28;20454;-75
2023/03/12 01:30:24;;;;;;;1999.90;999.90;;;-2.40;99.90;;;;;;5074508;28;20048;-76
2023/03/12 01:32:51;;;;;;;1999.90;999.90;;;-2.50;99.90;;;;;;5075983;28;20033;-75
2023/03/12 01:35:16;;;;;;;1999.90;999.90;;;-2.40;99.90;;;;;;5075512;28;20037;-76
2023/03/12 01:37:42;;;;;;;1999.90;999.90;;;-2.30;99.90;;;;;;5076110;28;20483;-75
2023/03/12 01:40:14;;;;;;;1999.90;999.90;;;-2.30;99.90;;;;;;5076287;28;20033;-75
2023/03/12 01:42:40;;;;;;;1999.90;999.90;;;-2.20;99.90;;;;;;5076209;28;20037;-75
2023/03/12 01:45:26;;;;;;;1999.90;999.90;;;-2.20;99.90;;;;;;5075434;28;20083;-76
2023/03/12 01:47:52;;;;;;;1999.90;999.90;;;-2.20;99.90;;;;;;5075744;28;20037;-76
2023/03/12 01:50:17;;;;;;;1999.90;999.90;;;-2.00;99.90;;;;;;5075908;28;20400;-75
2023/03/12 01:52:43;;;;;;;1999.90;999.90;;;-1.90;99.90;;;;;;5075562;28;20052;-76
2023/03/12 01:55:15;;;;;;;1999.90;999.90;;;-1.80;99.90;;;;;;5073761;28;20057;-75
2023/03/12 01:57:47;;;;;;;1999.90;999.90;;;-1.60;99.90;;;;;;5076040;28;20055;-76
2023/03/12 02:00:25;;;;;;;1999.90;999.90;;;-1.60;99.90;;;;;;5075285;28;20471;-75
2023/03/12 02:02:55;;;;;;;1999.90;999.90;;;-1.50;99.90;;;;;;5075452;28;20033;-75
2023/03/12 02:05:29;;;;;;;1999.90;999.90;;;-1.50;99.90;;;;;;5075202;28;20037;-75
2023/03/12 02:07:56;;;;;;;1999.90;999.90;;;-1.40;99.90;;;;;;5075401;28;20044;-76
2023/03/12 02:10:22;;;;;;;1999.90;999.90;;;-1.40;99.90;;;;;;5073840;28;20037;-75
2023/03/12 02:12:47;;;;;;;1999.90;999.90;;;-1.30;99.90;;;;;;5075303;28;20131;-76
2023/03/12 02:15:13;;;;;;;1999.90;999.90;;;-1.10;99.90;;;;;;5073489;28;20121;-76
2023/03/12 02:17:39;;;;;;;1999.90;999.90;;;-1.20;99.90;;;;;;5075430;28;20041;-75
2023/03/12 02:20:22;;;;;;;1999.90;999.90;;;-1.20;99.90;;;;;;5075182;28;20510;-75
2023/03/12 02:22:59;;;;;;;1999.90;999.90;;;-1.20;99.90;;;;;;5074635;28;20079;-76
2023/03/12 02:25:34;;;;;;;1999.90;999.90;;;-1.10;99.90;;;;;;5074777;28;20461;-76
2023/03/12 02:28:03;;;;;;;1999.90;999.90;;;-1.10;99.90;;;;;;5075105;28;20079;-76
2023/03/12 02:30:30;;;;;;;1999.90;999.90;;;-1.10;99.90;;;;;;5075078;28;20514;-76
2023/03/12 02:32:57;;;;;;;1999.90;999.90;;;-1.20;99.90;;;;;;5075218;28;20035;-75
2023/03/12 02:35:22;;;;;;;1999.90;999.90;;;-1.30;99.90;;;;;;5074090;28;20037;-76
2023/03/12 02:37:50;;;;;;;1999.90;999.90;;;-1.30;99.90;;;;;;5075997;28;20091;-76
2023/03/12 02:40:35;;;;;;;1999.90;999.90;;;-1.40;99.90;;;;;;5073571;28;20029;-75
2023/03/12 02:43:04;;;;;;;1999.90;999.90;;;-1.40;99.90;;;;;;5074985;28;20818;-75
2023/03/12 02:45:30;;;;;;;1999.90;999.90;;;-1.50;99.90;;;;;;5074516;28;20029;-76
2023/03/12 02:47:56;;;;;;;1999.90;999.90;;;-1.50;99.90;;;;;;5074935;28;20576;-75
2023/03/12 02:50:21;;;;;;;1999.90;999.90;;;-1.60;99.90;;;;;;5074786;28;20075;-75
2023/03/12 02:52:47;;;;;;;1999.90;999.90;;;-1.60;99.90;;;;;;5075014;28;20394;-75
2023/03/12 02:55:12;;;;;;;1999.90;999.90;;;-1.60;99.90;;;;;;5074410;28;20441;-75
2023/03/12 02:57:38;;;;;;;1999.90;999.90;;;-1.60;99.90;;;;;;5074904;28;20487;-76
2023/03/12 03:00:11;;;;;;;1999.90;999.90;;;-1.50;99.90;;;;;;5075146;28;20582;-76
2023/03/12 03:02:37;;;;;;;1999.90;999.90;;;-1.40;99.90;;;;;;5056866;28;20037;-75
2023/03/12 03:05:03;;;;;;;1999.90;999.90;;;-1.40;99.90;;;;;;5074169;28;20116;-75
2023/03/12 03:07:28;;;;;;;1999.90;999.90;;;-1.40;99.90;;;;;;5074873;28;20119;-75
2023/03/12 03:09:54;;;;;;;1999.90;999.90;;;-1.40;99.90;;;;;;5073465;28;20430;-75
2023/03/12 03:12:19;;;;;;;1999.90;999.90;;;-1.30;99.90;;;;;;5074751;28;20059;-76
2023/03/12 03:14:45;;;;;;;1999.90;999.90;;;-1.20;99.90;;;;;;5076592;28;20037;-75
2023/03/12 03:17:10;;;;;;;1999.90;999.90;;;-1.20;99.90;;;;;;5078380;28;20064;-76
2023/03/12 03:19:36;;;;;;;1999.90;999.90;;;-1.20;99.90;;;;;;5078347;28;20033;-76
2023/03/12 03:22:01;;;;;;;1999.90;999.90;;;-1.10;99.90;;;;;;5078351;28;20486;-75
2023/03/12 03:24:27;;;;;;;1999.90;999.90;;;-1.10;99.90;;;;;;5076352;28;20029;-76
2023/03/12 03:26:53;;;;;;;1999.90;999.90;;;-1.00;99.90;;;;;;5078197;28;20041;-76
2023/03/12 03:29:18;;;;;;;1999.90;999.90;;;-1.00;99.90;;;;;;5078256;28;20036;-75
2023/03/12 03:31:44;;;;;;;1999.90;999.90;;;-0.90;99.90;;;;;;5078124;28;20072;-76
2023/03/12 03:34:10;;;;;;;1999.90;999.90;;;-0.80;99.90;;;;;;5077387;28;20044;-76
2023/03/12 03:36:35;;;;;;;1999.90;999.90;;;-0.80;99.90;;;;;;5078129;28;20063;-76
2023/03/12 03:39:01;;;;;;;1999.90;999.90;;;-0.70;99.90;;;;;;5077792;28;20029;-76
2023/03/12 03:41:26;;;;;;;1999.90;999.90;;;-0.70;99.90;;;;;;5078214;28;20705;-75
2023/03/12 03:43:57;;;;;;;1999.90;999.90;;;-0.80;99.90;;;;;;5077597;28;20029;-76
2023/03/12 03:46:22;;;;;;;1999.90;999.90;;;-0.80;99.90;;;;;;5078065;28;20033;-76
2023/03/12 03:48:49;;;;;;;1999.90;999.90;;;-0.80;99.90;;;;;;5077775;28;20033;-76
2023/03/12 03:51:15;;;;;;;1999.90;999.90;;;-0.70;99.90;;;;;;5077638;28;20052;-75
2023/03/12 03:53:40;;;;;;;1999.90;999.90;;;-0.80;99.90;;;;;;5077451;28;20033;-75
2023/03/12 03:56:08;;;;;;;1999.90;999.90;;;-0.80;99.90;;;;;;5077287;28;20379;-75
2023/03/12 03:58:34;;;;;;;1999.90;999.90;;;-0.70;99.90;;;;;;5077367;28;20032;-75
2023/03/12 04:00:59;;;;;;;1999.90;999.90;;;-0.70;99.90;;;;;;5077638;28;20035;-76
2023/03/12 04:03:25;;;;;;;1999.90;999.90;;;-0.60;99.90;;;;;;5077561;28;20036;-75
2023/03/12 04:05:55;;;;;;;1999.90;999.90;;;-0.50;99.90;;;;;;5077343;28;20133;-75
2023/03/12 04:08:20;;;;;;;1999.90;999.90;;;-0.50;99.90;;;;;;5077300;28;20462;-75
2023/03/12 04:10:46;;;;;;;1999.90;999.90;;;-0.40;99.90;;;;;;5077562;28;20037;-75
2023/03/12 04:13:11;;;;;;;1999.90;999.90;;;-0.40;99.90;;;;;;5077617;28;20029;-75
2023/03/12 04:15:37;;;;;;;1999.90;999.90;;;-0.40;99.90;;;;;;5076507;28;20469;-75
2023/03/12 04:18:03;;;;;;;1999.90;999.90;;;-0.40;99.90;;;;;;5077542;28;20578;-76
2023/03/12 04:20:28;;;;;;;1999.90;999.90;;;-0.40;99.90;;;;;;5077421;28;20061;-75
2023/03/12 04:22:54;;;;;;;1999.90;999.90;;;-0.40;99.90;;;;;;5075760;28;20032;-75
2023/03/12 04:25:20;;;;;;;1999.90;999.90;;;-0.30;99.90;;;;;;5074991;28;20064;-75
2023/03/12 04:27:45;;;;;;;1999.90;999.90;;;-0.30;99.90;;;;;;5077088;28;20032;-76
2023/03/12 04:30:11;;;;;;;1999.90;999.90;;;-0.30;99.90;;;;;;5077024;28;20116;-75
2023/03/12 04:32:37;;;;;;;1999.90;999.90;;;-0.20;99.90;;;;;;5076786;28;20036;-76
2023/03/12 04:35:02;;;;;;;1999.90;999.90;;;-0.20;99.90;;;;;;5076282;28;20041;-75
2023/03/12 04:37:31;;;;;;;1999.90;999.90;;;-0.10;99.90;;;;;;5076867;28;20045;-76
2023/03/12 04:39:57;;;;;;;1999.90;999.90;;;-0.10;99.90;;;;;;5077047;28;20024;-75
2023/03/12 04:42:22;;;;;;;1999.90;999.90;;;-0.10;99.90;;;;;;5077572;28;20037;-76
2023/03/12 04:44:51;;;;;;;1999.90;999.90;;;-0.10;99.90;;;;;;5075036;28;20029;-77
2023/03/12 04:47:16;;;;;;;1999.90;999.90;;;0.00;99.90;;;;;;5076781;28;20067;-76
2023/03/12 04:49:42;;;;;;;1999.90;999.90;;;0.00;99.90;;;;;;5076905;28;20044;-76
2023/03/12 04:52:07;;;;;;;1999.90;999.90;;;0.10;99.90;;;;;;5076808;28;20083;-76
2023/03/12 04:54:34;;;;;;;1999.90;999.90;;;0.10;99.90;;;;;;5076491;28;20041;-76
2023/03/12 04:56:59;;;;;;;1999.90;999.90;;;0.10;99.90;;;;;;5076794;28;20033;-77
2023/03/12 04:59:25;;;;;;;1999.90;999.90;;;0.20;99.90;;;;;;5076825;28;20033;-77
2023/03/12 05:01:50;;;;;;;1999.90;999.90;;;0.20;99.90;;;;;;5076649;28;20475;-76
2023/03/12 05:04:16;;;;;;;1999.90;999.90;;;0.20;99.90;;;;;;5076045;28;20033;-76
2023/03/12 05:06:42;;;;;;;1999.90;999.90;;;0.20;99.90;;;;;;5076776;28;20041;-77
2023/03/12 05:09:07;;;;;;;1999.90;999.90;;;0.20;99.90;;;;;;5076559;28;20477;-77
2023/03/12 05:11:33;;;;;;;1999.90;999.90;;;0.10;99.90;;;;;;5076617;28;20045;-76
2023/03/12 05:13:58;;;;;;;1999.90;999.90;;;0.10;99.90;;;;;;5076157;28;20025;-76
2023/03/12 05:16:24;;;;;;;1999.90;999.90;;;0.10;99.90;;;;;;5076197;28;20086;-76
2023/03/12 05:18:49;;;;;;;1999.90;999.90;;;0.10;99.90;;;;;;5076526;28;20029;-76
2023/03/12 05:21:19;;;;;;;1999.90;999.90;;;0.10;99.90;;;;;;5074991;28;20107;-76
2023/03/12 05:23:45;;;;;;;1999.90;999.90;;;0.20;99.90;;;;;;5075722;28;20749;-76
2023/03/12 05:26:26;;;;;;;1999.90;999.90;;;0.20;99.90;;;;;;5076153;28;20035;-76
2023/03/12 05:28:52;;;;;;;1999.90;999.90;;;0.20;99.90;;;;;;5074775;28;20029;-76
2023/03/12 05:31:18;;;;;;;1999.90;999.90;;;0.20;99.90;;;;;;5076143;28;20033;-76
2023/03/12 05:33:44;;;;;;;1999.90;999.90;;;0.10;99.90;;;;;;5075257;28;20032;-77
2023/03/12 05:36:11;;;;;;;1999.90;999.90;;;0.10;99.90;;;;;;5075093;28;20041;-76
2023/03/12 05:38:37;;;;;;;1999.90;999.90;;;0.10;99.90;;;;;;5076076;28;20044;-76
2023/03/12 05:41:03;;;;;;;1999.90;999.90;;;0.10;99.90;;;;;;5074595;28;20491;-76
2023/03/12 05:43:29;;;;;;;1999.90;999.90;;;0.10;99.90;;;;;;5075633;28;20039;-77
2023/03/12 05:45:59;;;;;;;1999.90;999.90;;;0.10;99.90;;;;;;5075837;28;20028;-76
2023/03/12 05:48:25;;;;;;;1999.90;999.90;;;0.10;99.90;;;;;;5074475;28;20112;-77
2023/03/12 05:50:51;;;;;;;1999.90;999.90;;;0.00;99.90;;;;;;5075624;28;20139;-76
2023/03/12 05:53:16;;;;;;;1999.90;999.90;;;0.00;99.90;;;;;;5075943;28;20032;-77
2023/03/12 05:55:42;;;;;;;1999.90;999.90;;;0.00;99.90;;;;;;5075549;28;20111;-76
2023/03/12 05:58:08;;;;;;;1999.90;999.90;;;0.00;99.90;;;;;;5075582;28;20056;-77
2023/03/12 06:00:36;;;;;;;1999.90;999.90;;;-0.10;99.90;;;;;;5074374;28;20375;-77
2023/03/12 06:03:04;;;;;;;1999.90;999.90;;;0.00;99.90;;;;;;5075754;28;20164;-78
2023/03/12 06:05:30;;;;;;;1999.90;999.90;;;0.00;99.90;;;;;;5075142;28;20029;-76
2023/03/12 06:07:56;;;;;;;1999.90;999.90;;;-0.10;99.90;;;;;;5075619;28;20029;-76
2023/03/12 06:10:21;;;;;;;1999.90;999.90;;;0.00;99.90;;;;;;5075342;28;20445;-77
2023/03/12 06:12:47;;;;;;;1999.90;999.90;;;0.10;99.90;;;;;;5075523;28;20576;-76
2023/03/12 06:15:12;;;;;;;1999.90;999.90;;;0.30;99.90;;;;;;5074696;28;20491;-76
2023/03/12 06:17:38;;;;;;;1999.90;999.90;;;0.20;99.90;;;;;;5075448;28;20087;-77
2023/03/12 06:20:04;;;;;;;1999.90;999.90;;;0.20;99.90;;;;;;5075448;28;20586;-76
2023/03/12 06:22:30;;;;;;;1999.90;999.90;;;0.20;99.90;;;;;;5075090;28;20051;-77
2023/03/12 06:24:56;;;;;;;1999.90;999.90;;;0.30;99.90;;;;;;5074941;28;20035;-76
2023/03/12 06:27:21;;;;;;;1999.90;999.90;;;0.40;99.90;;;;;;5075321;28;20029;-77
2023/03/12 06:29:47;;;;;;;1999.90;999.90;;;0.40;99.90;;;;;;5075225;28;20025;-76
2023/03/12 06:32:13;;;;;;;1999.90;999.90;;;0.50;99.90;;;;;;5073612;28;20048;-77
2023/03/12 06:34:38;;;;;;;1999.90;999.90;;;0.50;99.90;;;;;;5074413;28;20041;-76
2023/03/12 06:37:04;;;;;;;1999.90;999.90;;;0.60;99.90;;;;;;5073641;28;20394;-77
2023/03/12 06:39:30;;;;;;;1999.90;999.90;;;0.70;99.90;;;;;;5075191;28;20044;-76
2023/03/12 06:41:55;;;;;;;1999.90;999.90;;;0.70;99.90;;;;;;5075042;28;20052;-76
2023/03/12 06:44:21;;;;;;;1999.90;999.90;;;0.80;99.90;;;;;;5074664;28;20033;-76
2023/03/12 06:46:46;;;;;;;1999.90;999.90;;;0.90;99.90;;;;;;5074786;28;20037;-76
2023/03/12 06:49:12;;;;;;;1999.90;999.90;;;0.90;99.90;;;;;;5074825;28;20399;-76
2023/03/12 06:51:38;;;;;;;1999.90;999.90;;;0.90;99.90;;;;;;5074937;28;20863;-76
2023/03/12 06:54:03;;;;;;;1999.90;999.90;;;1.00;99.90;;;;;;5074398;28;20159;-76
2023/03/12 06:56:30;;;;;;;1999.90;999.90;;;1.00;99.90;;;;;;5074857;28;20434;-76
2023/03/12 06:58:55;;;;;;;1999.90;999.90;;;1.10;99.90;;;;;;5073290;28;20095;-76
2023/03/12 07:01:21;;;;;;;1999.90;999.90;;;1.20;99.90;;;;;;5074543;28;20037;-76
2023/03/12 07:03:47;;;;;;;1999.90;999.90;;;1.20;99.90;;;;;;5074538;28;20155;-76
2023/03/12 07:06:18;;;;;;;1999.90;999.90;;;1.20;99.90;;;;;;5074709;28;20091;-76
2023/03/12 07:08:45;;;;;;;1999.90;999.90;;;1.20;99.90;;;;;;5074678;28;20036;-76
2023/03/12 07:11:11;;;;;;;1999.90;999.90;;;1.30;99.90;;;;;;5073128;28;20395;-76
2023/03/12 07:13:37;;;;;;;1999.90;999.90;;;1.30;99.90;;;;;;5074529;28;20494;-76
2023/03/12 07:16:03;;;;;;;1999.90;999.90;;;1.30;99.90;;;;;;5074288;28;20040;-76
2023/03/12 07:18:29;;;;;;;1999.90;999.90;;;1.40;99.90;;;;;;5074643;28;20082;-76
2023/03/12 07:20:54;;;;;;;1999.90;999.90;;;1.40;99.90;;;;;;5074587;28;20083;-76
2023/03/12 07:23:20;;;;;;;1999.90;999.90;;;1.50;99.90;;;;;;5073003;28;20577;-76
2023/03/12 07:25:46;;;;;;;1999.90;999.90;;;1.50;99.90;;;;;;5073972;28;20040;-76
2023/03/12 07:28:13;;;;;;;1999.90;999.90;;;1.60;99.90;;;;;;5074462;28;20029;-76
2023/03/12 07:30:39;;;;;;;1999.90;999.90;;;1.60;99.90;;;;;;5074262;28;20060;-76
2023/03/12 07:33:07;;;;;;;1999.90;999.90;;;1.80;99.90;;;;;;5074445;28;20040;-76
2023/03/12 07:35:33;;;;;;;1999.90;999.90;;;1.90;99.90;;;;;;5073602;28;20029;-76
2023/03/12 07:38:00;;;;;;;1999.90;999.90;;;2.00;99.90;;;;;;5074249;28;20044;-76
2023/03/12 07:40:26;;;;;;;1999.90;999.90;;;2.10;99.90;;;;;;5074053;28;20526;-77
2023/03/12 07:42:52;;;;;;;1999.90;999.90;;;2.20;99.90;;;;;;5074032;28;20521;-77
2023/03/12 07:45:18;;;;;;;1999.90;999.90;;;2.30;99.90;;;;;;5073972;28;20064;-76
2023/03/12 07:47:44;;;;;;;1999.90;999.90;;;2.30;99.90;;;;;;5074104;28;20036;-76
2023/03/12 07:50:10;;;;;;;1999.90;999.90;;;2.40;99.90;;;;;;5074343;28;20040;-76
2023/03/12 07:52:35;;;;;;;1999.90;999.90;;;2.60;99.90;;;;;;5074176;28;20041;-76
2023/03/12 07:55:01;;;;;;;1999.90;999.90;;;2.70;99.90;;;;;;5073904;28;20079;-76
2023/03/12 07:57:26;;;;;;;1999.90;999.90;;;2.80;99.90;;;;;;5074192;28;20103;-76
2023/03/12 07:59:52;;;;;;;1999.90;999.90;;;3.00;99.90;;;;;;5076821;28;20037;-75
2023/03/12 08:02:19;;;;;;;1999.90;999.90;;;3.10;99.90;;;;;;5077591;28;20037;-76
2023/03/12 08:04:44;;;;;;;1999.90;999.90;;;2.90;99.90;;;;;;5076887;28;20036;-76
2023/03/12 08:07:10;;;;;;;1999.90;999.90;;;3.00;99.90;;;;;;5077263;28;20383;-76
2023/03/12 08:09:37;;;;;;;1999.90;999.90;;;3.10;99.90;;;;;;5076468;28;20032;-75
2023/03/12 08:12:03;;;;;;;1999.90;999.90;;;3.40;99.90;;;;;;5077307;28;20555;-75
2023/03/12 08:14:30;;;;;;;1999.90;999.90;;;3.50;99.90;;;;;;5076456;28;20060;-75
2023/03/12 08:16:59;;;;;;;1999.90;999.90;;;3.60;99.90;;;;;;5076891;28;20024;-75
2023/03/12 08:19:25;;;;;;;1999.90;999.90;;;3.60;99.90;;;;;;5076012;28;20029;-76
2023/03/12 08:21:52;;;;;;;1999.90;999.90;;;3.50;99.90;;;;;;5077862;28;20072;-75
2023/03/12 08:24:19;;;;;;;1999.90;999.90;;;3.60;99.90;;;;;;5077252;28;20434;-76
2023/03/12 08:26:45;;;;;;;1999.90;999.90;;;3.60;99.90;;;;;;5077509;28;20048;-78
2023/03/12 08:29:11;;;;;;;1999.90;999.90;;;3.60;99.90;;;;;;5077432;28;20091;-80
2023/03/12 08:31:36;;;;;;;1999.90;999.90;;;3.70;99.90;;;;;;5077379;28;20128;-78
2023/03/12 08:34:02;;;;;;;1999.90;999.90;;;3.90;99.90;;;;;;5076889;28;20108;-74
2023/03/12 08:36:27;;;;;;;1999.90;999.90;;;3.90;99.90;;;;;;5071717;28;20041;-76
2023/03/12 08:38:53;;;;;;;1999.90;999.90;;;4.00;99.90;;;;;;5057021;28;20036;-75
2023/03/12 08:41:19;;;;;;;1999.90;999.90;;;4.00;99.90;;;;;;5056782;28;20536;-75
2023/03/12 08:43:45;;;;;;;1999.90;999.90;;;4.20;99.90;;;;;;5056487;28;20083;-77
2023/03/12 08:46:11;;;;;;;1999.90;999.90;;;4.20;99.90;;;;;;5068414;28;20036;-76
2023/03/12 08:48:36;;;;;;;1999.90;999.90;;;4.10;99.90;;;;;;5077096;28;20037;-76
2023/03/12 08:51:03;;;;;;;1999.90;999.90;;;4.20;99.90;;;;;;5075262;28;20044;-76
2023/03/12 08:53:29;;;;;;;1999.90;999.90;;;4.40;99.90;;;;;;5076656;28;20021;-76
2023/03/12 08:55:56;;;;;;;1999.90;999.90;;;4.40;99.90;;;;;;5076066;28;20028;-76
2023/03/12 08:58:23;;;;;;;1999.90;999.90;;;4.60;99.90;;;;;;5075293;28;20044;-75
2023/03/12 09:00:49;;;;;;;1999.90;999.90;;;4.80;99.90;;;;;;5076772;28;20029;-76
2023/03/12 09:03:15;;;;;;;1999.90;999.90;;;5.00;99.90;;;;;;5076585;28;20029;-75
2023/03/12 09:05:41;;;;;;;1999.90;999.90;;;5.00;99.90;;;;;;5076180;28;20029;-76
2023/03/12 09:08:08;;;;;;;1999.90;999.90;;;5.10;99.90;;;;;;5076589;28;20988;-76
2023/03/12 09:10:34;;;;;;;1999.90;999.90;;;5.40;99.90;;;;;;5074002;28;20096;-77
2023/03/12 09:13:00;;;;;;;1999.90;999.90;;;5.50;99.90;;;;;;5075084;28;20080;-75
2023/03/12 09:15:26;;;;;;;1999.90;999.90;;;5.40;99.90;;;;;;5076318;28;20108;-76
2023/03/12 09:17:52;;;;;;;1999.90;999.90;;;5.30;99.90;;;;;;5070428;28;20037;-76
2023/03/12 09:20:18;;;;;;;1999.90;999.90;;;5.40;99.90;;;;;;5075801;28;20494;-76
2023/03/12 09:22:44;;;;;;;1999.90;999.90;;;5.30;99.90;;;;;;5076304;28;20040;-76
2023/03/12 09:25:11;;;;;;;1999.90;999.90;;;5.30;99.90;;;;;;5074324;28;20037;-76
2023/03/12 09:27:45;;;;;;;1999.90;999.90;;;5.30;99.90;;;;;;5076257;28;20048;-75
2023/03/12 09:30:13;;;;;;;1999.90;999.90;;;5.40;99.90;;;;;;5075777;28;20121;-74
2023/03/12 09:32:39;;;;;;;1999.90;999.90;;;5.60;99.90;;;;;;5076256;28;20036;-76
2023/03/12 09:35:07;;;;;;;1999.90;999.90;;;5.70;99.90;;;;;;5075857;28;20107;-75
2023/03/12 09:37:33;;;;;;;1999.90;999.90;;;5.80;99.90;;;;;;5074032;28;20896;-74
2023/03/12 09:39:59;;;;;;;1999.90;999.90;;;5.70;99.90;;;;;;5074858;28;20091;-74
2023/03/12 09:42:39;;;;;;;1999.90;999.90;;;5.70;99.90;;;;;;5075270;28;20033;-73
2023/03/12 09:45:08;;;;;;;1999.90;999.90;;;5.60;99.90;;;;;;5073027;28;20043;-75
2023/03/12 09:47:48;;;;;;;1999.90;999.90;;;5.70;99.90;;;;;;5075835;28;20044;-74
2023/03/12 09:50:32;;;;;;;1999.90;999.90;;;5.80;99.90;;;;;;5076623;28;20037;-79
2023/03/12 09:53:05;;;;;;;1999.90;999.90;;;5.90;99.90;;;;;;5076226;28;20029;-76
2023/03/12 09:55:36;;;;;;;1999.90;999.90;;;6.00;99.90;;;;;;5075487;28;20548;-75
2023/03/12 09:58:02;;;;;;;1999.90;999.90;;;6.10;99.90;;;;;;5075699;28;20561;-76
2023/03/12 10:00:34;;;;;;;1999.90;999.90;;;6.20;99.90;;;;;;5076328;28;20041;-78
2023/03/12 10:03:43;;;;;;;1999.90;999.90;;;6.20;99.90;;;;;;5075617;28;20474;-75
2023/03/12 10:06:19;;;;;;;1999.90;999.90;;;6.10;99.90;;;;;;5073893;28;20048;-76
2023/03/12 10:09:18;;;;;;;1999.90;999.90;;;6.20;99.90;;;;;;5074221;28;20470;-76
2023/03/12 10:12:06;;;;;;;1999.90;999.90;;;6.30;99.90;;;;;;5074264;28;20032;-77
2023/03/12 10:14:52;;;;;;;1999.90;999.90;;;6.30;99.90;;;;;;5075272;28;20565;-78
2023/03/12 10:17:31;;;;;;;1999.90;999.90;;;6.30;99.90;;;;;;5075121;28;20083;-76
2023/03/12 10:20:28;;;;;;;1999.90;999.90;;;6.40;99.90;;;;;;5075949;28;20044;-77
2023/03/12 10:23:20;;;;;;;1999.90;999.90;;;6.50;99.90;;;;;;5076002;28;20043;-78
2023/03/12 10:25:56;;;;;;;1999.90;999.90;;;6.70;99.90;;;;;;5074863;28;20033;-78
2023/03/12 10:28:34;;;;;;;1999.90;999.90;;;6.80;99.90;;;;;;5073848;28;20116;-77
2023/03/12 10:31:26;;;;;;;1999.90;999.90;;;6.90;99.90;;;;;;5075204;28;20037;-77
2023/03/12 10:33:56;;;;;;;1999.90;999.90;;;6.90;99.90;;;;;;5073421;28;20040;-83
2023/03/12 10:36:28;;;;;;;1999.90;999.90;;;6.70;99.90;;;;;;5074217;28;20040;-75
2023/03/12 10:38:54;;;;;;;1999.90;999.90;;;6.60;99.90;;;;;;5075549;28;20025;-77
2023/03/12 10:41:22;;;;;;;1999.90;999.90;;;6.40;99.90;;;;;;5075087;28;20032;-79
2023/03/12 10:43:48;;;;;;;1999.90;999.90;;;6.40;99.90;;;;;;5082430;28;20029;-80
2023/03/12 10:46:13;;;;;;;1999.90;999.90;;;6.40;99.90;;;;;;5083246;28;20041;-78
2023/03/12 10:48:39;;;;;;;1999.90;999.90;;;6.50;99.90;;;;;;5079042;28;20025;-78
2023/03/12 10:51:07;;;;;;;1999.90;999.90;;;6.40;99.90;;;;;;5078585;28;20037;-82
2023/03/12 10:53:46;;;;;;;1999.90;999.90;;;6.40;99.90;;;;;;5076978;28;20541;-78
2023/03/12 10:56:15;;;;;;;1999.90;999.90;;;6.40;99.90;;;;;;5075784;28;20032;-78
2023/03/12 10:58:43;;;;;;;1999.90;999.90;;;6.60;99.90;;;;;;5077936;28;20132;-78
2023/03/12 11:01:24;;;;;;;1999.90;999.90;;;6.60;99.90;;;;;;5076463;28;20116;-78
2023/03/12 11:03:50;;;;;;;1999.90;999.90;;;6.70;99.90;;;;;;5077526;28;20100;-78
2023/03/12 11:06:34;;;;;;;1999.90;999.90;;;6.90;99.90;;;;;;5076756;28;20091;-81
2023/03/12 11:09:16;;;;;;;1999.90;999.90;;;7.20;99.90;;;;;;5078275;28;20032;-77
2023/03/12 11:11:44;;;;;;;1999.90;999.90;;;7.20;99.90;;;;;;5078857;28;20053;-78
2023/03/12 11:14:09;;;;;;;1999.90;999.90;;;7.30;99.90;;;;;;5077791;28;20029;-78
2023/03/12 11:16:35;;;;;;;1999.90;999.90;;;7.40;99.90;;;;;;5078218;28;20523;-79
2023/03/12 11:19:03;;;;;;;1999.90;999.90;;;7.50;99.90;;;;;;5078711;28;20078;-78
2023/03/12 11:21:30;;;;;;;1999.90;999.90;;;7.70;99.90;;;;;;5077905;28;20543;-80
2023/03/12 11:23:56;;;;;;;1999.90;999.90;;;7.70;99.90;;;;;;5079456;28;20502;-77
2023/03/12 11:26:24;;;;;;;1999.90;999.90;;;8.00;99.90;;;;;;5076909;28;20043;-78
2023/03/12 11:28:55;;;;;;;1999.90;999.90;;;8.10;99.90;;;;;;5075437;28;20100;-78
2023/03/12 11:31:36;;;;;;;1999.90;999.90;;;8.30;99.90;;;;;;5075740;28;20041;-77
2023/03/12 11:34:12;;;;;;;1999.90;999.90;;;8.30;99.90;;;;;;5074832;28;20029;-77
2023/03/12 11:36:55;;;;;;;1999.90;999.90;;;8.10;99.90;;;;;;5078659;28;20029;-77
2023/03/12 11:39:50;;;;;;;1999.90;999.90;;;8.30;99.90;;;;;;5077734;28;20021;-77
2023/03/12 11:42:26;;;;;;;1999.90;999.90;;;8.60;99.90;;;;;;5077036;28;20060;-76
2023/03/12 11:44:51;;;;;;;1999.90;999.90;;;8.70;99.90;;;;;;5079523;28;20037;-78
2023/03/12 11:47:58;;;;;;;1999.90;999.90;;;8.80;99.90;;;;;;5078593;28;20029;-77
2023/03/12 11:50:39;;;;;;;1999.90;999.90;;;8.80;99.90;;;;;;5077489;28;20597;-77
2023/03/12 11:53:28;;;;;;;1999.90;999.90;;;8.90;99.90;;;;;;5056143;28;20045;-77
2023/03/12 11:56:22;;;;;;;1999.90;999.90;;;9.00;99.90;;;;;;5072275;28;20120;-78
2023/03/12 11:59:05;;;;;;;1999.90;999.90;;;9.70;99.90;;;;;;5077228;28;20506;-77
2023/03/12 12:01:56;;;;;;;1999.90;999.90;;;9.70;99.90;;;;;;5077819;28;20064;-77
2023/03/12 12:04:44;;;;;;;1999.90;999.90;;;9.90;99.90;;;;;;5077702;28;20029;-78
2023/03/12 12:07:15;;;;;;;1999.90;999.90;;;10.20;99.90;;;;;;5078394;28;20167;-77
2023/03/12 12:10:22;;;;;;;1999.90;999.90;;;10.10;99.90;;;;;;5078017;28;20036;-79